Time;durP1;ratioP1;P1;durP2;ratioP2;P2;SDS_P1;SDS_P2;PMS_P1;PMS_P2;Temp;Humidity;BMP_temperature;BMP_pressure;BME280_temperature;BME280_humidity;BME280_pressure;Samples;Min_cycle;Max_cycle;Signal;HPM_P1;HPM_P2
2023/06/12 00:01:40;;;;;;;25.80;24.20;;;;;;;;;;5057377;28;20558;-81
2023/06/12 00:04:07;;;;;;;26.40;24.90;;;;;;;;;;5058140;28;20476;-81
2023/06/12 00:06:35;;;;;;;25.37;23.80;;;;;;;;;;5057592;28;20788;-82
2023/06/12 00:09:02;;;;;;;25.40;23.90;;;;;;;;;;5058090;28;20931;-80
2023/06/12 00:11:31;;;;;;;26.00;24.33;;;;;;;;;;5057960;28;20463;-80
2023/06/12 00:13:58;;;;;;;25.70;24.23;;;;;;;;;;5058299;28;20421;-81
2023/06/12 00:16:25;;;;;;;25.67;24.17;;;;;;;;;;5057391;28;20955;-81
2023/06/12 00:18:52;;;;;;;25.40;23.90;;;;;;;;;;5057987;28;20462;-80
2023/06/12 00:21:22;;;;;;;25.87;24.17;;;;;;;;;;5056831;28;20540;-80
2023/06/12 00:23:49;;;;;;;26.50;24.90;;;;;;;;;;5058223;28;20530;-81
2023/06/12 00:26:16;;;;;;;25.90;24.40;;;;;;;;;;5057752;28;20455;-80
2023/06/12 00:28:46;;;;;;;26.30;24.60;;;;;;;;;;5057337;28;20447;-82
2023/06/12 00:31:13;;;;;;;27.17;25.37;;;;;;;;;;5057950;28;20444;-79
2023/06/12 00:33:41;;;;;;;27.07;25.37;;;;;;;;;;5057575;28;20461;-80
2023/06/12 00:36:08;;;;;;;25.77;24.20;;;;;;;;;;5056646;28;20475;-81
2023/06/12 00:38:35;;;;;;;26.77;24.93;;;;;;;;;;5057935;28;20923;-81
2023/06/12 00:41:02;;;;;;;25.73;24.13;;;;;;;;;;5057935;28;20457;-82
2023/06/12 00:43:29;;;;;;;25.90;24.40;;;;;;;;;;5058326;28;20949;-81
2023/06/12 00:45:58;;;;;;;26.83;25.23;;;;;;;;;;5057342;28;20454;-81
2023/06/12 00:48:25;;;;;;;25.60;24.10;;;;;;;;;;5058055;28;20435;-82
2023/06/12 00:50:53;;;;;;;25.80;24.20;;;;;;;;;;5057267;28;20505;-81
2023/06/12 00:53:20;;;;;;;26.07;24.47;;;;;;;;;;5057599;28;20441;-81
2023/06/12 00:55:47;;;;;;;26.27;24.60;;;;;;;;;;5057229;28;20477;-81
2023/06/12 00:58:13;;;;;;;26.43;24.83;;;;;;;;;;5057112;28;20430;-81
2023/06/12 01:00:41;;;;;;;25.70;24.20;;;;;;;;;;5056111;28;20527;-81
2023/06/12 01:03:12;;;;;;;26.73;25.13;;;;;;;;;;5056781;28;20899;-80
2023/06/12 01:05:42;;;;;;;26.63;25.03;;;;;;;;;;5056842;28;20464;-79
2023/06/12 01:08:19;;;;;;;26.00;24.50;;;;;;;;;;5056974;28;20509;-79
2023/06/12 01:10:48;;;;;;;26.70;25.10;;;;;;;;;;5056833;28;20549;-80
2023/06/12 01:13:16;;;;;;;26.90;25.10;;;;;;;;;;5056957;28;20438;-79
2023/06/12 01:15:43;;;;;;;25.57;24.07;;;;;;;;;;5056145;28;20470;-80
2023/06/12 01:18:12;;;;;;;26.00;24.50;;;;;;;;;;5056845;28;20421;-80
2023/06/12 01:20:40;;;;;;;26.73;24.77;;;;;;;;;;5056636;28;20532;-80
2023/06/12 01:23:11;;;;;;;26.63;24.77;;;;;;;;;;5055936;28;20492;-80
2023/06/12 01:25:56;;;;;;;25.13;23.53;;;;;;;;;;5055817;28;20445;-80
2023/06/12 01:28:37;;;;;;;25.97;24.37;;;;;;;;;;5056817;28;20408;-80
2023/06/12 01:31:14;;;;;;;26.30;24.30;;;;;;;;;;5056067;28;20978;-80
2023/06/12 01:33:44;;;;;;;25.40;23.90;;;;;;;;;;5056499;28;20417;-81
2023/06/12 01:36:15;;;;;;;25.20;23.70;;;;;;;;;;5055816;28;20414;-80
2023/06/12 01:38:43;;;;;;;24.47;23.07;;;;;;;;;;5056247;28;20411;-81
2023/06/12 01:41:11;;;;;;;26.17;24.47;;;;;;;;;;5055793;28;20445;-80
2023/06/12 01:43:38;;;;;;;26.07;24.47;;;;;;;;;;5055130;28;20502;-80
2023/06/12 01:46:06;;;;;;;25.03;23.53;;;;;;;;;;5055655;28;20455;-79
2023/06/12 01:48:33;;;;;;;26.13;24.33;;;;;;;;;;5056277;28;20562;-78
2023/06/12 01:51:01;;;;;;;25.67;24.07;;;;;;;;;;5056113;28;20458;-80
2023/06/12 01:53:28;;;;;;;25.67;24.03;;;;;;;;;;5055176;28;20466;-81
2023/06/12 01:55:56;;;;;;;26.10;24.50;;;;;;;;;;5054954;28;20429;-80
2023/06/12 01:58:23;;;;;;;25.87;24.27;;;;;;;;;;5056036;28;20812;-80
2023/06/12 02:00:53;;;;;;;25.37;23.97;;;;;;;;;;5055349;28;20477;-80
2023/06/12 02:03:20;;;;;;;26.47;24.77;;;;;;;;;;5055279;28;20465;-80
2023/06/12 02:05:47;;;;;;;25.70;24.20;;;;;;;;;;5054957;28;20458;-81
2023/06/12 02:08:16;;;;;;;26.30;24.60;;;;;;;;;;5055792;28;20469;-81
2023/06/12 02:10:43;;;;;;;24.80;23.40;;;;;;;;;;5055428;28;20496;-81
2023/06/12 02:13:10;;;;;;;26.20;24.40;;;;;;;;;;5054998;28;20525;-80
2023/06/12 02:15:37;;;;;;;25.27;23.77;;;;;;;;;;5055208;28;20443;-80
2023/06/12 02:18:04;;;;;;;25.00;23.40;;;;;;;;;;5055927;28;20478;-80
2023/06/12 02:20:31;;;;;;;25.23;23.73;;;;;;;;;;5055601;28;20467;-79
2023/06/12 02:22:58;;;;;;;25.40;23.90;;;;;;;;;;5055076;28;20876;-79
2023/06/12 02:25:27;;;;;;;26.73;24.87;;;;;;;;;;5055199;28;20413;-80
2023/06/12 02:27:54;;;;;;;25.67;24.17;;;;;;;;;;5054977;28;20451;-79
2023/06/12 02:30:21;;;;;;;26.10;24.60;;;;;;;;;;5055070;28;20448;-79
2023/06/12 02:32:49;;;;;;;25.07;23.57;;;;;;;;;;5055552;28;20429;-81
2023/06/12 02:35:16;;;;;;;26.97;25.27;;;;;;;;;;5054638;28;20504;-81
2023/06/12 02:37:43;;;;;;;27.00;25.40;;;;;;;;;;5054676;28;20429;-78
2023/06/12 02:40:10;;;;;;;25.83;24.23;;;;;;;;;;5054202;28;20601;-81
2023/06/12 02:42:39;;;;;;;25.83;24.20;;;;;;;;;;5054542;28;20839;-81
2023/06/12 02:45:06;;;;;;;27.50;25.80;;;;;;;;;;5055051;28;20968;-82
2023/06/12 02:47:34;;;;;;;25.73;24.13;;;;;;;;;;5054961;28;20909;-79
2023/06/12 02:50:01;;;;;;;25.73;24.13;;;;;;;;;;5055133;28;20851;-82
2023/06/12 02:52:28;;;;;;;25.67;24.17;;;;;;;;;;5055507;28;20428;-79
2023/06/12 02:54:55;;;;;;;26.10;24.40;;;;;;;;;;5055049;28;20561;-80
2023/06/12 02:57:22;;;;;;;27.73;26.07;;;;;;;;;;5055418;28;20428;-80
2023/06/12 02:59:50;;;;;;;27.30;25.70;;;;;;;;;;5055523;28;20851;-79
2023/06/12 03:02:17;;;;;;;26.47;24.77;;;;;;;;;;5054765;28;20483;-81
2023/06/12 03:04:44;;;;;;;26.70;25.10;;;;;;;;;;5054154;28;20501;-81
2023/06/12 03:07:12;;;;;;;26.30;24.67;;;;;;;;;;5053546;28;20449;-79
2023/06/12 03:09:39;;;;;;;27.10;25.33;;;;;;;;;;5053667;28;20458;-78
2023/06/12 03:12:06;;;;;;;27.80;25.87;;;;;;;;;;5053771;28;20545;-79
2023/06/12 03:14:33;;;;;;;25.93;24.43;;;;;;;;;;5053034;28;20497;-79
2023/06/12 03:17:02;;;;;;;27.27;25.57;;;;;;;;;;5053165;28;20512;-80
2023/06/12 03:19:29;;;;;;;26.93;25.33;;;;;;;;;;5054017;28;20413;-79
2023/06/12 03:21:56;;;;;;;27.53;25.83;;;;;;;;;;5054619;28;20478;-80
2023/06/12 03:24:24;;;;;;;27.17;25.57;;;;;;;;;;5058036;28;20443;-79
2023/06/12 03:26:51;;;;;;;26.47;24.97;;;;;;;;;;5056800;28;20441;-80
2023/06/12 03:29:17;;;;;;;26.40;24.87;;;;;;;;;;5059657;28;20425;-80
2023/06/12 03:31:45;;;;;;;26.10;24.50;;;;;;;;;;5059289;28;20421;-78
2023/06/12 03:34:15;;;;;;;26.23;24.70;;;;;;;;;;5057905;28;20421;-78
2023/06/12 03:36:43;;;;;;;27.40;25.73;;;;;;;;;;5058100;28;20424;-78
2023/06/12 03:39:10;;;;;;;26.63;25.13;;;;;;;;;;5057528;28;20453;-78
2023/06/12 03:41:37;;;;;;;26.00;24.50;;;;;;;;;;5057863;28;20524;-78
2023/06/12 03:44:04;;;;;;;26.70;25.10;;;;;;;;;;5057775;28;20545;-78
2023/06/12 03:46:32;;;;;;;27.67;25.80;;;;;;;;;;5057289;28;20421;-78
2023/06/12 03:49:00;;;;;;;25.90;24.33;;;;;;;;;;5057336;28;20990;-78
2023/06/12 03:51:28;;;;;;;26.23;24.73;;;;;;;;;;5057178;28;20482;-78
2023/06/12 03:53:55;;;;;;;26.87;25.27;;;;;;;;;;5057799;28;20413;-78
2023/06/12 03:56:22;;;;;;;27.40;25.60;;;;;;;;;;5065755;28;20451;-78
2023/06/12 03:58:50;;;;;;;26.37;24.70;;;;;;;;;;5076891;28;20500;-78
2023/06/12 04:01:17;;;;;;;25.90;24.30;;;;;;;;;;5075446;28;20453;-78
2023/06/12 04:03:45;;;;;;;27.57;25.47;;;;;;;;;;5066665;28;20833;-79
2023/06/12 04:06:12;;;;;;;26.50;24.80;;;;;;;;;;5057444;28;20468;-78
2023/06/12 04:08:41;;;;;;;26.77;25.17;;;;;;;;;;5058101;28;20762;-79
2023/06/12 04:11:13;;;;;;;26.50;24.60;;;;;;;;;;5057030;28;20524;-79
2023/06/12 04:13:40;;;;;;;27.23;25.43;;;;;;;;;;5057590;28;20425;-78
2023/06/12 04:16:08;;;;;;;26.83;24.83;;;;;;;;;;5057789;28;21131;-78
2023/06/12 04:18:37;;;;;;;26.80;25.00;;;;;;;;;;5058626;28;20761;-78
2023/06/12 04:21:05;;;;;;;26.57;24.87;;;;;;;;;;5058230;28;20452;-79
2023/06/12 04:23:32;;;;;;;27.20;25.60;;;;;;;;;;5058870;28;20967;-78
2023/06/12 04:26:04;;;;;;;26.97;25.37;;;;;;;;;;5058754;28;20425;-78
2023/06/12 04:28:31;;;;;;;27.50;25.60;;;;;;;;;;5060220;28;20414;-79
2023/06/12 04:30:59;;;;;;;27.77;26.00;;;;;;;;;;5059188;28;20545;-79
2023/06/12 04:33:30;;;;;;;26.27;24.77;;;;;;;;;;5059326;28;20513;-78
2023/06/12 04:35:57;;;;;;;27.50;25.90;;;;;;;;;;5055405;28;20472;-78
2023/06/12 04:38:25;;;;;;;26.30;24.60;;;;;;;;;;5057457;28;20952;-78
2023/06/12 04:40:52;;;;;;;27.17;25.33;;;;;;;;;;5056282;28;21068;-79
2023/06/12 04:43:21;;;;;;;27.60;25.90;;;;;;;;;;5057190;28;20485;-78
2023/06/12 04:45:48;;;;;;;27.30;25.60;;;;;;;;;;5056743;28;20461;-77
2023/06/12 04:48:15;;;;;;;27.03;25.43;;;;;;;;;;5058401;28;20485;-78
2023/06/12 04:50:44;;;;;;;26.90;25.30;;;;;;;;;;5066320;28;20467;-78
2023/06/12 04:53:12;;;;;;;27.17;25.57;;;;;;;;;;5068065;28;20453;-78
2023/06/12 04:55:40;;;;;;;26.63;24.93;;;;;;;;;;5056586;28;20534;-80
2023/06/12 04:58:08;;;;;;;26.70;25.17;;;;;;;;;;5057429;28;20498;-81
2023/06/12 05:00:36;;;;;;;26.70;25.10;;;;;;;;;;5057781;28;20497;-80
2023/06/12 05:03:03;;;;;;;27.27;25.47;;;;;;;;;;5063042;28;20501;-79
2023/06/12 05:05:30;;;;;;;26.83;25.13;;;;;;;;;;5062727;28;20439;-80
2023/06/12 05:07:57;;;;;;;28.00;26.20;;;;;;;;;;5065015;28;20958;-80
2023/06/12 05:10:24;;;;;;;27.03;25.43;;;;;;;;;;5076379;28;20454;-78
2023/06/12 05:12:51;;;;;;;26.90;25.20;;;;;;;;;;5073843;28;20561;-81
2023/06/12 05:15:18;;;;;;;26.30;24.60;;;;;;;;;;5070353;28;20508;-81
2023/06/12 05:17:47;;;;;;;28.17;26.20;;;;;;;;;;5076079;28;20419;-80
2023/06/12 05:20:15;;;;;;;26.90;25.20;;;;;;;;;;5076483;28;20473;-80
2023/06/12 05:22:42;;;;;;;25.77;24.27;;;;;;;;;;5076122;28;20552;-80
2023/06/12 05:25:10;;;;;;;27.47;25.77;;;;;;;;;;5075806;28;20424;-80
2023/06/12 05:27:37;;;;;;;27.37;25.53;;;;;;;;;;5075564;28;20822;-79
2023/06/12 05:30:06;;;;;;;27.50;25.80;;;;;;;;;;5076610;28;20440;-80
2023/06/12 05:32:33;;;;;;;27.57;25.67;;;;;;;;;;5075724;28;20465;-80
2023/06/12 05:35:02;;;;;;;26.53;24.70;;;;;;;;;;5076440;28;20813;-79
2023/06/12 05:37:29;;;;;;;28.20;26.23;;;;;;;;;;5076034;28;20457;-80
2023/06/12 05:39:56;;;;;;;27.07;25.43;;;;;;;;;;5076100;28;20448;-80
2023/06/12 05:42:23;;;;;;;27.87;26.13;;;;;;;;;;5075872;28;20523;-80
2023/06/12 05:44:50;;;;;;;28.40;26.40;;;;;;;;;;5076305;28;20452;-80
2023/06/12 05:47:17;;;;;;;27.77;25.97;;;;;;;;;;5075697;28;20471;-80
2023/06/12 05:49:44;;;;;;;27.90;26.17;;;;;;;;;;5076202;28;20876;-80
2023/06/12 05:52:13;;;;;;;28.40;26.53;;;;;;;;;;5075123;28;20980;-79
2023/06/12 05:54:40;;;;;;;28.57;26.67;;;;;;;;;;5076371;28;20894;-81
2023/06/12 05:57:07;;;;;;;28.30;26.40;;;;;;;;;;5075287;28;20429;-80
2023/06/12 05:59:34;;;;;;;28.87;26.97;;;;;;;;;;5075512;28;20427;-80
2023/06/12 06:02:01;;;;;;;28.63;26.50;;;;;;;;;;5075449;28;20420;-80
2023/06/12 06:04:28;;;;;;;28.47;26.57;;;;;;;;;;5075038;28;20489;-79
2023/06/12 06:06:55;;;;;;;28.30;26.50;;;;;;;;;;5074840;28;20450;-80
2023/06/12 06:09:24;;;;;;;27.63;25.83;;;;;;;;;;5075261;28;20420;-80
2023/06/12 06:11:51;;;;;;;28.67;26.67;;;;;;;;;;5075731;28;20453;-80
2023/06/12 06:14:19;;;;;;;28.30;26.50;;;;;;;;;;5074606;28;20517;-79
2023/06/12 06:16:46;;;;;;;28.30;26.50;;;;;;;;;;5075367;28;20421;-80
2023/06/12 06:19:13;;;;;;;28.00;26.20;;;;;;;;;;5075285;28;20861;-79
2023/06/12 06:21:40;;;;;;;28.40;26.70;;;;;;;;;;5074997;28;20483;-80
2023/06/12 06:24:07;;;;;;;29.00;27.07;;;;;;;;;;5074849;28;20482;-80
2023/06/12 06:26:36;;;;;;;29.03;27.10;;;;;;;;;;5074545;28;20456;-79
2023/06/12 06:29:03;;;;;;;27.83;26.10;;;;;;;;;;5074445;28;20964;-79
2023/06/12 06:31:30;;;;;;;29.63;27.27;;;;;;;;;;5074345;28;20448;-80
2023/06/12 06:33:57;;;;;;;29.60;27.60;;;;;;;;;;5074555;28;20459;-79
2023/06/12 06:36:24;;;;;;;29.63;27.20;;;;;;;;;;5073933;28;20449;-79
2023/06/12 06:38:51;;;;;;;28.47;26.50;;;;;;;;;;5074746;28;20453;-78
2023/06/12 06:41:18;;;;;;;28.70;26.80;;;;;;;;;;5074508;28;20468;-80
2023/06/12 06:43:47;;;;;;;28.30;26.50;;;;;;;;;;5074600;28;20524;-79
2023/06/12 06:46:14;;;;;;;29.77;27.87;;;;;;;;;;5073921;28;20466;-78
2023/06/12 06:48:41;;;;;;;28.93;27.07;;;;;;;;;;5075294;28;20416;-78
2023/06/12 06:51:08;;;;;;;29.73;27.77;;;;;;;;;;5075364;28;20477;-80
2023/06/12 06:53:35;;;;;;;28.53;26.63;;;;;;;;;;5075381;28;20434;-79
2023/06/12 06:56:02;;;;;;;28.97;26.97;;;;;;;;;;5074299;28;20461;-79
2023/06/12 06:58:30;;;;;;;28.90;27.10;;;;;;;;;;5076441;28;20477;-79
2023/06/12 07:00:58;;;;;;;28.40;26.70;;;;;;;;;;5078370;28;20465;-79
2023/06/12 07:03:27;;;;;;;27.97;26.17;;;;;;;;;;5077426;28;20461;-86
2023/06/12 07:05:54;;;;;;;29.00;27.10;;;;;;;;;;5076566;28;20492;-79
2023/06/12 07:08:21;;;;;;;28.47;26.60;;;;;;;;;;5076536;28;20484;-78
2023/06/12 07:10:48;;;;;;;29.03;27.20;;;;;;;;;;5075917;28;20470;-78
2023/06/12 07:13:15;;;;;;;28.60;26.70;;;;;;;;;;5075630;28;20494;-79
2023/06/12 07:15:42;;;;;;;29.50;27.50;;;;;;;;;;5074403;28;20541;-79
2023/06/12 07:18:11;;;;;;;27.80;26.10;;;;;;;;;;5074795;28;20469;-79
2023/06/12 07:20:38;;;;;;;28.47;26.53;;;;;;;;;;5073743;28;20470;-78
2023/06/12 07:23:05;;;;;;;28.87;27.07;;;;;;;;;;5075049;28;20442;-80
2023/06/12 07:25:33;;;;;;;29.23;27.43;;;;;;;;;;5076432;28;20517;-80
2023/06/12 07:27:59;;;;;;;28.33;26.43;;;;;;;;;;5078473;28;20536;-80
2023/06/12 07:30:26;;;;;;;30.07;28.13;;;;;;;;;;5076049;28;20485;-80
2023/06/12 07:32:54;;;;;;;29.37;27.33;;;;;;;;;;5075153;28;20937;-78
2023/06/12 07:35:22;;;;;;;29.47;27.37;;;;;;;;;;5073729;28;20472;-78
2023/06/12 07:37:49;;;;;;;28.87;26.97;;;;;;;;;;5072334;28;20491;-80
2023/06/12 07:40:17;;;;;;;29.40;27.20;;;;;;;;;;5072848;28;20517;-79
2023/06/12 07:42:44;;;;;;;28.40;26.60;;;;;;;;;;5073719;28;20458;-78
2023/06/12 07:45:11;;;;;;;28.00;26.03;;;;;;;;;;5072780;28;20489;-78
2023/06/12 07:47:38;;;;;;;28.40;26.50;;;;;;;;;;5076630;28;20450;-79
2023/06/12 07:50:05;;;;;;;27.57;25.67;;;;;;;;;;5074578;28;20448;-79
2023/06/12 07:52:34;;;;;;;28.47;26.30;;;;;;;;;;5073885;28;20485;-77
2023/06/12 07:55:01;;;;;;;28.57;26.67;;;;;;;;;;5074537;28;20425;-78
2023/06/12 07:57:29;;;;;;;28.30;26.50;;;;;;;;;;5073492;28;20424;-79
2023/06/12 07:59:56;;;;;;;28.87;26.87;;;;;;;;;;5074060;28;20452;-76
2023/06/12 08:02:28;;;;;;;28.83;27.00;;;;;;;;;;5072048;28;20504;-77
2023/06/12 08:04:55;;;;;;;28.87;26.97;;;;;;;;;;5072295;28;20474;-77
2023/06/12 08:07:22;;;;;;;27.93;26.13;;;;;;;;;;5072635;28;20541;-77
2023/06/12 08:09:51;;;;;;;29.27;27.37;;;;;;;;;;5075096;28;20470;-77
2023/06/12 08:12:18;;;;;;;28.30;26.50;;;;;;;;;;5076431;28;20440;-82
2023/06/12 08:14:47;;;;;;;28.10;26.30;;;;;;;;;;5073816;28;20412;-77
2023/06/12 08:17:14;;;;;;;28.10;26.40;;;;;;;;;;5076271;28;20519;-77
2023/06/12 08:19:41;;;;;;;30.00;27.90;;;;;;;;;;5076065;28;20469;-76
2023/06/12 08:22:08;;;;;;;27.80;26.00;;;;;;;;;;5075800;28;20518;-77
2023/06/12 08:24:35;;;;;;;28.50;26.70;;;;;;;;;;5076002;28;20477;-77
2023/06/12 08:27:04;;;;;;;29.40;27.47;;;;;;;;;;5075731;28;20753;-77
2023/06/12 08:29:31;;;;;;;28.50;26.60;;;;;;;;;;5075802;28;20424;-79
2023/06/12 08:31:58;;;;;;;28.20;26.40;;;;;;;;;;5075388;28;20455;-78
2023/06/12 08:34:25;;;;;;;29.03;27.23;;;;;;;;;;5075888;28;20421;-77
2023/06/12 08:36:53;;;;;;;28.53;26.73;;;;;;;;;;5075442;28;20787;-78
2023/06/12 08:39:20;;;;;;;29.07;27.17;;;;;;;;;;5075442;28;20503;-77
2023/06/12 08:41:54;;;;;;;28.93;27.13;;;;;;;;;;5075210;28;20456;-78
2023/06/12 08:44:23;;;;;;;28.70;26.40;;;;;;;;;;5075359;28;20473;-77
2023/06/12 08:46:51;;;;;;;28.00;26.13;;;;;;;;;;5075748;28;20550;-79
2023/06/12 08:49:19;;;;;;;27.53;25.83;;;;;;;;;;5075980;28;20504;-80
2023/06/12 08:51:46;;;;;;;29.47;27.23;;;;;;;;;;5076627;28;20442;-79
2023/06/12 08:54:14;;;;;;;28.47;26.67;;;;;;;;;;5075981;28;20963;-79
2023/06/12 08:56:43;;;;;;;28.73;26.87;;;;;;;;;;5075811;28;20451;-81
2023/06/12 08:59:10;;;;;;;28.93;27.13;;;;;;;;;;5078068;28;20755;-79
2023/06/12 09:01:39;;;;;;;30.07;28.07;;;;;;;;;;5085678;28;20476;-78
2023/06/12 09:04:09;;;;;;;29.23;27.33;;;;;;;;;;5091700;28;20462;-77
2023/06/12 09:06:37;;;;;;;29.30;27.40;;;;;;;;;;5093145;28;20436;-78
2023/06/12 09:09:05;;;;;;;29.90;27.87;;;;;;;;;;5081461;28;20806;-78
2023/06/12 09:11:36;;;;;;;29.50;27.60;;;;;;;;;;5076404;28;20441;-78
2023/06/12 09:14:03;;;;;;;29.03;27.23;;;;;;;;;;5076957;28;20915;-78
2023/06/12 09:16:30;;;;;;;29.70;27.70;;;;;;;;;;5075881;28;20457;-78
2023/06/12 09:18:58;;;;;;;29.63;27.53;;;;;;;;;;5076357;28;20447;-79
2023/06/12 09:21:26;;;;;;;28.73;26.90;;;;;;;;;;5076213;28;20441;-80
2023/06/12 09:23:55;;;;;;;29.43;27.43;;;;;;;;;;5077292;28;20417;-80
2023/06/12 09:26:22;;;;;;;29.30;27.40;;;;;;;;;;5076888;28;20425;-80
2023/06/12 09:28:51;;;;;;;29.77;27.67;;;;;;;;;;5076687;28;20477;-80
2023/06/12 09:31:18;;;;;;;31.00;28.90;;;;;;;;;;5076180;28;21018;-81
2023/06/12 09:33:45;;;;;;;29.53;27.60;;;;;;;;;;5076465;28;20433;-79
2023/06/12 09:36:14;;;;;;;29.23;27.30;;;;;;;;;;5074908;28;20905;-77
2023/06/12 09:38:41;;;;;;;30.30;28.20;;;;;;;;;;5074111;28;20533;-78
2023/06/12 09:41:10;;;;;;;29.37;27.23;;;;;;;;;;5074680;28;20453;-79
2023/06/12 09:43:37;;;;;;;29.00;27.20;;;;;;;;;;5075149;28;20804;-79
2023/06/12 09:46:08;;;;;;;29.43;27.43;;;;;;;;;;5075118;28;20675;-80
2023/06/12 09:48:35;;;;;;;29.47;27.57;;;;;;;;;;5075229;28;20903;-79
2023/06/12 09:51:05;;;;;;;28.77;26.87;;;;;;;;;;5074478;28;20487;-79
2023/06/12 09:53:37;;;;;;;29.40;27.43;;;;;;;;;;5075813;28;20436;-79
2023/06/12 09:56:06;;;;;;;30.27;28.27;;;;;;;;;;5075011;28;20409;-79
2023/06/12 09:58:35;;;;;;;30.47;28.37;;;;;;;;;;5075329;28;20549;-79
2023/06/12 10:01:03;;;;;;;30.40;28.23;;;;;;;;;;5074342;28;20496;-79
2023/06/12 10:03:30;;;;;;;31.67;29.17;;;;;;;;;;5080495;28;21036;-80
2023/06/12 10:05:57;;;;;;;30.10;28.10;;;;;;;;;;5076714;28;20993;-80
2023/06/12 10:08:29;;;;;;;30.90;28.90;;;;;;;;;;5075454;28;20446;-79
2023/06/12 10:10:58;;;;;;;30.33;28.33;;;;;;;;;;5074304;28;20478;-79
2023/06/12 10:13:26;;;;;;;30.97;28.97;;;;;;;;;;5075303;28;20453;-78
2023/06/12 10:15:53;;;;;;;31.20;28.90;;;;;;;;;;5074569;28;20490;-78
2023/06/12 10:18:20;;;;;;;30.47;28.47;;;;;;;;;;5074785;28;20424;-79
2023/06/12 10:20:49;;;;;;;30.53;28.50;;;;;;;;;;5074748;28;20506;-88
2023/06/12 10:23:16;;;;;;;33.03;30.77;;;;;;;;;;5076884;28;20929;-85
2023/06/12 10:25:44;;;;;;;32.87;30.17;;;;;;;;;;5075912;28;20502;-86
2023/06/12 10:28:12;;;;;;;30.87;28.87;;;;;;;;;;5079273;28;20435;-86
2023/06/12 10:30:39;;;;;;;30.13;28.13;;;;;;;;;;5075783;28;20541;-87
2023/06/12 10:33:13;;;;;;;31.93;29.63;;;;;;;;;;5076019;28;20432;-89
2023/06/12 10:35:40;;;;;;;30.40;28.50;;;;;;;;;;5076262;28;20445;-90
2023/06/12 10:38:11;;;;;;;29.67;27.87;;;;;;;;;;5074626;28;20507;-79
2023/06/12 10:40:39;;;;;;;30.77;28.77;;;;;;;;;;5074719;28;20486;-80
2023/06/12 10:43:06;;;;;;;31.10;29.10;;;;;;;;;;5074615;28;20477;-79
2023/06/12 10:45:36;;;;;;;30.10;27.93;;;;;;;;;;5072817;28;21167;-77
2023/06/12 10:48:17;;;;;;;31.73;29.63;;;;;;;;;;5073711;28;20486;-78
2023/06/12 10:50:45;;;;;;;31.50;29.40;;;;;;;;;;5074390;28;20458;-82
2023/06/12 10:53:13;;;;;;;30.97;28.97;;;;;;;;;;5074653;28;20464;-87
2023/06/12 10:55:40;;;;;;;29.80;27.57;;;;;;;;;;5074837;28;20964;-79
2023/06/12 10:58:07;;;;;;;30.67;28.67;;;;;;;;;;5073917;28;20992;-77
2023/06/12 11:00:36;;;;;;;29.80;27.93;;;;;;;;;;5072857;28;21060;-79
2023/06/12 11:03:07;;;;;;;31.53;29.43;;;;;;;;;;5073962;28;20449;-80
2023/06/12 11:05:34;;;;;;;31.50;29.07;;;;;;;;;;5073364;28;20460;-80
2023/06/12 11:08:02;;;;;;;31.53;29.43;;;;;;;;;;5073932;28;20416;-80
2023/06/12 11:10:29;;;;;;;31.13;29.13;;;;;;;;;;5073394;28;20481;-80
2023/06/12 11:12:57;;;;;;;32.40;30.20;;;;;;;;;;5074374;28;20449;-80
2023/06/12 11:15:24;;;;;;;31.17;28.97;;;;;;;;;;5074787;28;20776;-79
2023/06/12 11:17:52;;;;;;;30.33;28.40;;;;;;;;;;5074740;28;20449;-80
2023/06/12 11:20:20;;;;;;;30.70;28.70;;;;;;;;;;5074046;28;20444;-78
2023/06/12 11:22:48;;;;;;;30.00;28.00;;;;;;;;;;5074637;28;20912;-84
2023/06/12 11:25:16;;;;;;;30.17;28.00;;;;;;;;;;5074209;28;21151;-81
2023/06/12 11:27:43;;;;;;;29.40;27.50;;;;;;;;;;5073803;28;20413;-80
2023/06/12 11:30:11;;;;;;;27.90;26.10;;;;;;;;;;5073336;28;20845;-80
2023/06/12 11:32:38;;;;;;;30.10;28.20;;;;;;;;;;5073429;28;20487;-80
2023/06/12 11:35:09;;;;;;;30.57;28.57;;;;;;;;;;5073130;28;20417;-78
2023/06/12 11:37:41;;;;;;;31.03;29.00;;;;;;;;;;5075144;28;20423;-86
2023/06/12 11:40:10;;;;;;;29.13;27.23;;;;;;;;;;5074415;28;20518;-81
2023/06/12 11:42:37;;;;;;;29.53;27.60;;;;;;;;;;5073553;28;20465;-85
2023/06/12 11:45:07;;;;;;;30.17;27.97;;;;;;;;;;5076787;28;20460;-80
2023/06/12 11:47:36;;;;;;;29.70;27.90;;;;;;;;;;5077311;28;20424;-87
2023/06/12 11:50:05;;;;;;;29.90;28.03;;;;;;;;;;5078031;28;20451;-81
2023/06/12 11:52:34;;;;;;;29.33;27.50;;;;;;;;;;5077770;28;20432;-81
2023/06/12 11:55:02;;;;;;;29.60;27.60;;;;;;;;;;5077636;28;20415;-82
2023/06/12 11:57:29;;;;;;;29.70;27.70;;;;;;;;;;5077127;28;20449;-82
2023/06/12 11:59:57;;;;;;;29.70;27.50;;;;;;;;;;5077815;28;20440;-82
2023/06/12 12:02:29;;;;;;;29.50;27.60;;;;;;;;;;5077235;28;20409;-81
2023/06/12 12:04:56;;;;;;;27.90;26.20;;;;;;;;;;5076902;28;20544;-81
2023/06/12 12:07:24;;;;;;;29.23;27.20;;;;;;;;;;5076746;28;20806;-82
2023/06/12 12:10:02;;;;;;;29.40;27.50;;;;;;;;;;5077072;28;20558;-78
2023/06/12 12:12:38;;;;;;;29.83;27.93;;;;;;;;;;5078619;28;20424;-80
2023/06/12 12:15:06;;;;;;;29.10;27.20;;;;;;;;;;5078155;28;20442;-80
2023/06/12 12:17:33;;;;;;;29.23;27.13;;;;;;;;;;5078616;28;20468;-81
2023/06/12 12:20:04;;;;;;;29.30;27.20;;;;;;;;;;5079886;28;20570;-81
2023/06/12 12:22:31;;;;;;;28.37;26.57;;;;;;;;;;5081133;28;20453;-81
2023/06/12 12:25:00;;;;;;;29.83;27.93;;;;;;;;;;5077408;28;20417;-78
2023/06/12 12:27:27;;;;;;;29.10;27.13;;;;;;;;;;5076700;28;20446;-79
2023/06/12 12:29:54;;;;;;;28.53;26.30;;;;;;;;;;5076859;28;20486;-79
2023/06/12 12:32:21;;;;;;;27.93;26.13;;;;;;;;;;5077050;28;20472;-78
2023/06/12 12:34:48;;;;;;;29.00;27.10;;;;;;;;;;5076727;28;20826;-77
2023/06/12 12:37:15;;;;;;;29.40;27.50;;;;;;;;;;5076828;28;20822;-79
2023/06/12 12:39:42;;;;;;;29.20;27.30;;;;;;;;;;5076316;28;20464;-79
2023/06/12 12:42:11;;;;;;;28.83;26.83;;;;;;;;;;5076430;28;21008;-85
2023/06/12 12:44:38;;;;;;;28.53;26.63;;;;;;;;;;5078452;28;20436;-80
2023/06/12 12:47:05;;;;;;;27.83;25.90;;;;;;;;;;5077287;28;20512;-86
2023/06/12 12:49:32;;;;;;;29.87;27.80;;;;;;;;;;5077281;28;20427;-81
2023/06/12 12:51:59;;;;;;;29.20;27.10;;;;;;;;;;5077254;28;20470;-82
2023/06/12 12:54:26;;;;;;;28.57;26.77;;;;;;;;;;5077138;28;20424;-81
2023/06/12 12:56:56;;;;;;;29.03;26.83;;;;;;;;;;5076323;28;20447;-81
2023/06/12 12:59:25;;;;;;;29.50;27.50;;;;;;;;;;5077231;28;20424;-82
2023/06/12 13:01:52;;;;;;;29.70;27.50;;;;;;;;;;5076418;28;20909;-82
2023/06/12 13:04:19;;;;;;;30.13;28.10;;;;;;;;;;5076927;28;20453;-80
2023/06/12 13:06:46;;;;;;;28.63;26.40;;;;;;;;;;5076623;28;20459;-82
2023/06/12 13:09:13;;;;;;;29.10;27.00;;;;;;;;;;5077987;28;20450;-81
2023/06/12 13:11:41;;;;;;;29.60;27.70;;;;;;;;;;5077141;28;20433;-81
2023/06/12 13:14:08;;;;;;;27.37;25.57;;;;;;;;;;5077270;28;20469;-80
2023/06/12 13:16:37;;;;;;;27.60;25.77;;;;;;;;;;5076674;28;20533;-80
2023/06/12 13:19:04;;;;;;;28.20;26.30;;;;;;;;;;5076914;28;20950;-82
2023/06/12 13:21:31;;;;;;;27.23;25.50;;;;;;;;;;5076221;28;20518;-82
2023/06/12 13:23:58;;;;;;;27.87;26.17;;;;;;;;;;5076465;28;20455;-81
2023/06/12 13:26:25;;;;;;;28.40;26.60;;;;;;;;;;5076169;28;20473;-80
2023/06/12 13:28:52;;;;;;;28.20;26.17;;;;;;;;;;5076374;28;20429;-84
2023/06/12 13:31:20;;;;;;;28.23;26.43;;;;;;;;;;5076638;28;21047;-86
2023/06/12 13:33:48;;;;;;;27.83;26.13;;;;;;;;;;5078145;28;20428;-87
2023/06/12 13:36:15;;;;;;;27.63;25.83;;;;;;;;;;5078816;28;20508;-85
2023/06/12 13:38:46;;;;;;;26.90;25.13;;;;;;;;;;5077967;28;20471;-86
2023/06/12 13:41:13;;;;;;;27.70;25.90;;;;;;;;;;5076480;28;20485;-86
2023/06/12 13:43:40;;;;;;;28.30;26.40;;;;;;;;;;5077704;28;20460;-86
2023/06/12 13:46:07;;;;;;;28.43;26.57;;;;;;;;;;5075748;28;20471;-80
2023/06/12 13:48:34;;;;;;;29.13;27.23;;;;;;;;;;5075901;28;20922;-84
2023/06/12 13:51:03;;;;;;;27.80;25.90;;;;;;;;;;5075910;28;20492;-82
2023/06/12 13:53:30;;;;;;;28.30;26.30;;;;;;;;;;5075763;28;20469;-84
2023/06/12 13:55:57;;;;;;;28.30;26.50;;;;;;;;;;5079036;28;20470;-86
2023/06/12 13:58:24;;;;;;;27.37;25.67;;;;;;;;;;5078403;28;20901;-85
2023/06/12 14:00:51;;;;;;;27.50;25.43;;;;;;;;;;5076748;28;20476;-77
2023/06/12 14:03:18;;;;;;;27.57;25.70;;;;;;;;;;5075985;28;20428;-76
2023/06/12 14:05:45;;;;;;;28.07;26.37;;;;;;;;;;5074524;28;20443;-77
2023/06/12 14:08:14;;;;;;;28.27;26.13;;;;;;;;;;5074440;28;20500;-77
2023/06/12 14:10:43;;;;;;;27.87;26.07;;;;;;;;;;5073889;28;20476;-77
2023/06/12 14:13:10;;;;;;;27.87;25.83;;;;;;;;;;5076273;28;20450;-76
2023/06/12 14:15:39;;;;;;;28.70;26.40;;;;;;;;;;5080748;28;20472;-84
2023/06/12 14:18:06;;;;;;;27.20;25.10;;;;;;;;;;5079754;28;20486;-78
2023/06/12 14:20:33;;;;;;;27.30;25.37;;;;;;;;;;5073845;28;20508;-78